Time;durP1;ratioP1;P1;durP2;ratioP2;P2;SDS_P1;SDS_P2;PMS_P1;PMS_P2;Temp;Humidity;BMP_temperature;BMP_pressure;BME280_temperature;BME280_humidity;BME280_pressure;Samples;Min_cycle;Max_cycle;Signal;HPM_P1;HPM_P2
2023/11/13 00:00:15;;;;;;;22.77;13.50;;;5.60;99.90;;;;;;5012062;28;20255;-68
2023/11/13 00:02:40;;;;;;;17.77;13.83;;;5.60;99.90;;;;;;5012392;28;20566;-69
2023/11/13 00:05:07;;;;;;;21.93;13.63;;;5.70;99.90;;;;;;5011802;28;20212;-69
2023/11/13 00:07:32;;;;;;;20.53;14.37;;;5.70;99.90;;;;;;5011837;28;20168;-68
2023/11/13 00:09:58;;;;;;;17.47;13.03;;;5.70;99.90;;;;;;5011246;28;20259;-68
2023/11/13 00:12:24;;;;;;;18.70;13.70;;;5.70;99.90;;;;;;5011351;28;20172;-68
2023/11/13 00:14:50;;;;;;;22.13;13.87;;;5.80;99.90;;;;;;5011100;28;20584;-69
2023/11/13 00:17:17;;;;;;;15.80;13.17;;;5.80;99.90;;;;;;5010891;28;20248;-68
2023/11/13 00:19:47;;;;;;;17.53;13.70;;;5.80;99.90;;;;;;5011361;28;20176;-69
2023/11/13 00:22:12;;;;;;;18.37;13.27;;;5.80;99.90;;;;;;5011295;28;20172;-69
2023/11/13 00:24:39;;;;;;;22.33;13.27;;;5.90;99.90;;;;;;5010985;28;20891;-69
2023/11/13 00:27:05;;;;;;;14.90;13.00;;;5.90;99.90;;;;;;5012423;28;20161;-68
2023/11/13 00:29:30;;;;;;;18.77;12.97;;;5.90;99.90;;;;;;5015141;28;20231;-68
2023/11/13 00:31:56;;;;;;;18.77;13.57;;;6.00;99.90;;;;;;5015004;28;20247;-68
2023/11/13 00:34:22;;;;;;;19.97;13.67;;;6.00;99.90;;;;;;5014993;28;20199;-68
2023/11/13 00:36:50;;;;;;;17.53;13.27;;;6.10;99.90;;;;;;5014719;28;20172;-69
2023/11/13 00:39:17;;;;;;;18.23;12.70;;;6.10;99.90;;;;;;5014483;28;20196;-69
2023/11/13 00:41:42;;;;;;;15.00;12.83;;;6.10;99.90;;;;;;5014884;28;20653;-69
2023/11/13 00:44:08;;;;;;;16.87;12.23;;;6.00;99.90;;;;;;5014883;28;20203;-69
2023/11/13 00:46:34;;;;;;;21.30;12.37;;;6.00;99.90;;;;;;5014660;28;20200;-69
2023/11/13 00:48:59;;;;;;;18.03;12.13;;;6.00;99.90;;;;;;5014608;28;20169;-69
2023/11/13 00:51:25;;;;;;;13.57;11.50;;;6.00;99.90;;;;;;5014296;28;20183;-69
2023/11/13 00:53:50;;;;;;;17.07;12.10;;;6.00;99.90;;;;;;5014387;28;20200;-69
2023/11/13 00:56:16;;;;;;;16.07;12.70;;;6.10;99.90;;;;;;5014244;28;20191;-69
2023/11/13 00:58:42;;;;;;;14.70;11.40;;;6.10;99.90;;;;;;5014368;28;20203;-68
2023/11/13 01:01:10;;;;;;;15.93;11.83;;;6.20;99.90;;;;;;5014143;28;20176;-69
2023/11/13 01:03:35;;;;;;;14.83;11.87;;;6.20;99.90;;;;;;5014209;28;20653;-69
2023/11/13 01:06:02;;;;;;;19.80;12.53;;;6.30;99.90;;;;;;5014288;28;20250;-69
2023/11/13 01:08:28;;;;;;;14.20;10.93;;;6.30;99.90;;;;;;5014151;28;20175;-69
2023/11/13 01:10:53;;;;;;;16.67;11.63;;;6.30;99.90;;;;;;5014486;28;20168;-68
2023/11/13 01:13:20;;;;;;;15.67;12.07;;;6.30;99.90;;;;;;5013947;28;20176;-69
2023/11/13 01:15:48;;;;;;;19.47;12.07;;;6.30;99.90;;;;;;5014103;28;20574;-69
2023/11/13 01:18:17;;;;;;;18.30;12.83;;;6.30;99.90;;;;;;5013938;28;20206;-68
2023/11/13 01:20:46;;;;;;;18.87;12.17;;;6.30;99.90;;;;;;5013933;28;20720;-69
2023/11/13 01:23:11;;;;;;;15.10;11.50;;;6.40;99.90;;;;;;5013927;28;20526;-69
2023/11/13 01:25:37;;;;;;;15.53;12.60;;;6.40;99.90;;;;;;5013893;28;20294;-69
2023/11/13 01:28:03;;;;;;;15.03;11.63;;;6.40;99.90;;;;;;5014027;28;20291;-69
2023/11/13 01:30:28;;;;;;;16.30;12.37;;;6.50;99.90;;;;;;5014017;28;20525;-69
2023/11/13 01:32:54;;;;;;;14.40;11.60;;;6.50;99.90;;;;;;5013936;28;20172;-69
2023/11/13 01:35:20;;;;;;;15.10;11.23;;;6.50;99.90;;;;;;5013500;28;20286;-69
2023/11/13 01:37:46;;;;;;;18.10;11.53;;;6.50;99.90;;;;;;5013353;28;20192;-68
2023/11/13 01:40:12;;;;;;;19.23;11.67;;;6.60;99.90;;;;;;5013499;28;20176;-70
2023/11/13 01:42:38;;;;;;;14.67;11.67;;;6.50;99.90;;;;;;5013824;28;20641;-68
2023/11/13 01:45:05;;;;;;;12.30;10.73;;;6.50;99.90;;;;;;5013472;28;20195;-68
2023/11/13 01:47:31;;;;;;;11.80;10.30;;;6.60;99.90;;;;;;5013204;28;20183;-67
2023/11/13 01:49:57;;;;;;;12.70;9.97;;;6.60;99.90;;;;;;5013592;28;20191;-68
2023/11/13 01:52:23;;;;;;;17.00;10.80;;;6.60;99.90;;;;;;5013346;28;20553;-68
2023/11/13 01:54:49;;;;;;;16.70;11.20;;;6.60;99.90;;;;;;5013528;28;20279;-68
2023/11/13 01:57:15;;;;;;;14.97;11.10;;;6.70;99.90;;;;;;5013161;28;20199;-68
2023/11/13 01:59:42;;;;;;;18.37;11.27;;;6.70;99.90;;;;;;5013775;28;20160;-68
2023/11/13 02:02:08;;;;;;;14.90;10.93;;;6.70;99.90;;;;;;5013525;28;20260;-68
2023/11/13 02:04:34;;;;;;;12.70;10.07;;;6.70;99.90;;;;;;5013641;28;20204;-68
2023/11/13 02:07:00;;;;;;;11.87;10.07;;;6.70;99.90;;;;;;5012902;28;20208;-69
2023/11/13 02:09:26;;;;;;;13.40;10.57;;;6.80;99.90;;;;;;5014219;28;20176;-68
2023/11/13 02:11:52;;;;;;;11.47;10.37;;;6.80;99.90;;;;;;5014272;28;20650;-68
2023/11/13 02:14:18;;;;;;;13.23;9.50;;;6.80;99.90;;;;;;5013901;28;20267;-68
2023/11/13 02:16:44;;;;;;;11.63;9.37;;;6.90;99.90;;;;;;5013540;28;20191;-68
2023/11/13 02:19:17;;;;;;;14.03;10.10;;;6.90;99.90;;;;;;5013168;28;20169;-68
2023/11/13 02:21:43;;;;;;;11.10;9.67;;;6.90;99.90;;;;;;5013428;28;20179;-68
2023/11/13 02:24:14;;;;;;;11.73;10.37;;;6.90;99.90;;;;;;5013130;28;20188;-68
2023/11/13 02:26:41;;;;;;;12.07;10.20;;;6.90;99.90;;;;;;5012861;28;20200;-68
2023/11/13 02:29:06;;;;;;;12.50;10.27;;;7.00;99.90;;;;;;5011923;28;20584;-68
2023/11/13 02:31:32;;;;;;;13.50;9.67;;;7.00;99.90;;;;;;5012604;28;20179;-68
2023/11/13 02:33:57;;;;;;;12.80;9.77;;;7.00;99.90;;;;;;5012698;28;20623;-69
2023/11/13 02:36:24;;;;;;;11.87;9.50;;;7.10;99.90;;;;;;5012798;28;20204;-68
2023/11/13 02:38:50;;;;;;;14.70;9.43;;;7.10;99.90;;;;;;5012558;28;20712;-68
2023/11/13 02:41:15;;;;;;;13.27;9.37;;;7.20;99.90;;;;;;5012435;28;20206;-69
2023/11/13 02:43:41;;;;;;;14.40;9.60;;;7.20;99.90;;;;;;5012518;28;20190;-68
2023/11/13 02:46:06;;;;;;;11.87;9.40;;;7.20;99.90;;;;;;5012018;28;20204;-69
2023/11/13 02:48:32;;;;;;;12.00;8.63;;;7.20;99.90;;;;;;5012083;28;20603;-68
2023/11/13 02:50:58;;;;;;;14.07;8.93;;;7.20;99.90;;;;;;5011961;28;20259;-68
2023/11/13 02:53:23;;;;;;;9.67;8.67;;;7.20;99.90;;;;;;5012371;28;20664;-69
2023/11/13 02:55:51;;;;;;;10.87;9.73;;;7.20;99.90;;;;;;5011987;28;20249;-68
2023/11/13 02:58:17;;;;;;;9.83;8.50;;;7.20;99.90;;;;;;5012298;28;20703;-68
2023/11/13 03:00:43;;;;;;;10.60;9.00;;;7.20;99.90;;;;;;5012342;28;20268;-68
2023/11/13 03:03:08;;;;;;;12.40;8.90;;;7.20;99.90;;;;;;5012077;28;20264;-68
2023/11/13 03:05:34;;;;;;;10.00;8.60;;;7.20;99.90;;;;;;5011799;28;20219;-68
2023/11/13 03:07:59;;;;;;;10.73;9.40;;;7.20;99.90;;;;;;5011827;28;20172;-68
2023/11/13 03:10:25;;;;;;;9.37;8.47;;;7.20;99.90;;;;;;5011926;28;20230;-68
2023/11/13 03:12:51;;;;;;;15.30;9.70;;;7.20;99.90;;;;;;5012367;28;20165;-69
2023/11/13 03:15:17;;;;;;;10.07;8.93;;;7.20;99.90;;;;;;5012407;28;20196;-68
2023/11/13 03:17:42;;;;;;;9.63;8.73;;;7.20;99.90;;;;;;5012418;28;20180;-68
2023/11/13 03:20:09;;;;;;;13.23;9.17;;;7.20;99.90;;;;;;5012422;28;20634;-68
2023/11/13 03:22:34;;;;;;;11.17;9.03;;;7.20;99.90;;;;;;5012613;28;20259;-69
2023/11/13 03:25:00;;;;;;;11.47;9.40;;;7.20;99.90;;;;;;5012070;28;20346;-68
2023/11/13 03:27:26;;;;;;;9.50;8.60;;;7.20;99.90;;;;;;5011705;28;20172;-68
2023/11/13 03:29:52;;;;;;;11.13;9.07;;;7.20;99.90;;;;;;5012290;28;20191;-68
2023/11/13 03:32:17;;;;;;;9.83;8.83;;;7.20;99.90;;;;;;5012357;28;20184;-68
2023/11/13 03:34:44;;;;;;;12.77;8.70;;;7.20;99.90;;;;;;5012245;28;20200;-68
2023/11/13 03:37:10;;;;;;;9.57;8.57;;;7.10;99.90;;;;;;5011780;28;20175;-69
2023/11/13 03:39:36;;;;;;;11.27;8.87;;;7.20;99.90;;;;;;5011999;28;20182;-68
2023/11/13 03:42:02;;;;;;;10.60;8.70;;;7.20;99.90;;;;;;5012393;28;20176;-69
2023/11/13 03:44:28;;;;;;;9.50;8.70;;;7.20;99.90;;;;;;5012210;28;20200;-68
2023/11/13 03:46:53;;;;;;;11.07;9.30;;;7.20;99.90;;;;;;5012077;28;20204;-68
2023/11/13 03:49:19;;;;;;;8.97;8.17;;;7.20;99.90;;;;;;5012019;28;20238;-68
2023/11/13 03:51:45;;;;;;;11.60;9.50;;;7.20;99.90;;;;;;5012109;28;20203;-68
2023/11/13 03:54:10;;;;;;;11.93;8.90;;;7.20;99.90;;;;;;5011733;28;20208;-68
2023/11/13 03:56:36;;;;;;;9.33;8.13;;;7.30;99.90;;;;;;5011789;28;20278;-69
2023/11/13 03:59:02;;;;;;;9.47;8.57;;;7.30;99.90;;;;;;5011646;28;20184;-68
2023/11/13 04:01:27;;;;;;;12.50;8.47;;;7.30;99.90;;;;;;5013623;28;20183;-68
2023/11/13 04:03:53;;;;;;;9.47;8.57;;;7.30;99.90;;;;;;5018201;28;20664;-68
2023/11/13 04:06:19;;;;;;;9.37;8.20;;;7.30;99.90;;;;;;5018382;28;20207;-69
2023/11/13 04:08:44;;;;;;;12.60;8.63;;;7.30;99.90;;;;;;5018033;28;20768;-68
2023/11/13 04:11:10;;;;;;;9.87;8.87;;;7.30;99.90;;;;;;5018345;28;20221;-68
2023/11/13 04:13:36;;;;;;;10.97;9.50;;;7.30;99.90;;;;;;5018223;28;20633;-68
2023/11/13 04:16:02;;;;;;;12.73;9.60;;;7.40;99.90;;;;;;5018258;28;20187;-69
2023/11/13 04:18:29;;;;;;;12.00;9.47;;;7.40;99.90;;;;;;5018083;28;20556;-69
2023/11/13 04:20:55;;;;;;;10.70;9.53;;;7.40;99.90;;;;;;5017992;28;20172;-69
2023/11/13 04:23:23;;;;;;;12.40;10.37;;;7.40;99.90;;;;;;5018258;28;20219;-68
2023/11/13 04:25:50;;;;;;;10.73;9.13;;;7.50;99.90;;;;;;5017954;28;20266;-68
2023/11/13 04:28:16;;;;;;;13.23;9.73;;;7.50;99.90;;;;;;5017857;28;20173;-68
2023/11/13 04:30:42;;;;;;;11.30;10.10;;;7.50;99.90;;;;;;5018333;28;20200;-68
2023/11/13 04:33:07;;;;;;;13.00;9.67;;;7.50;99.90;;;;;;5018263;28;20645;-68
2023/11/13 04:35:33;;;;;;;13.80;10.30;;;7.50;99.90;;;;;;5017704;28;20286;-68
2023/11/13 04:37:58;;;;;;;11.43;10.23;;;7.50;99.90;;;;;;5017796;28;20254;-68
2023/11/13 04:40:26;;;;;;;10.97;9.87;;;7.50;99.90;;;;;;5018017;28;20180;-68
2023/11/13 04:42:52;;;;;;;14.13;9.90;;;7.60;99.90;;;;;;5018077;28;20172;-68
2023/11/13 04:45:17;;;;;;;11.43;9.37;;;7.60;99.90;;;;;;5017798;28;20677;-68
2023/11/13 04:47:43;;;;;;;11.33;10.20;;;7.60;99.90;;;;;;5017543;28;20234;-68
2023/11/13 04:50:09;;;;;;;11.73;9.90;;;7.60;99.90;;;;;;5017710;28;20621;-68
2023/11/13 04:52:34;;;;;;;10.63;9.53;;;7.70;99.90;;;;;;5018139;28;20226;-68
2023/11/13 04:55:00;;;;;;;14.13;9.87;;;7.70;99.90;;;;;;5017657;28;20203;-68
2023/11/13 04:57:26;;;;;;;11.10;10.00;;;7.70;99.90;;;;;;5017604;28;20195;-68
2023/11/13 04:59:52;;;;;;;15.50;10.80;;;7.70;99.90;;;;;;5018018;28;20654;-69
2023/11/13 05:02:18;;;;;;;10.67;9.57;;;7.70;99.90;;;;;;5017793;28;20214;-69
2023/11/13 05:04:45;;;;;;;18.30;10.77;;;7.70;99.90;;;;;;5017416;28;20533;-69
2023/11/13 05:07:11;;;;;;;14.00;9.90;;;7.70;99.90;;;;;;5017614;28;20226;-69
2023/11/13 05:09:36;;;;;;;12.07;10.77;;;7.70;99.90;;;;;;5017718;28;20509;-69
2023/11/13 05:12:02;;;;;;;13.73;10.17;;;7.60;99.90;;;;;;5017902;28;20682;-68
2023/11/13 05:14:28;;;;;;;13.47;10.40;;;7.60;99.90;;;;;;5013722;28;20192;-68
2023/11/13 05:16:57;;;;;;;11.43;10.13;;;7.60;99.90;;;;;;5014563;28;20183;-69
2023/11/13 05:19:23;;;;;;;12.83;10.30;;;7.60;99.90;;;;;;5014499;28;20585;-68
2023/11/13 05:21:49;;;;;;;15.73;11.00;;;7.60;99.90;;;;;;5014756;28;20184;-68
2023/11/13 05:24:14;;;;;;;12.13;9.97;;;7.60;99.90;;;;;;5014226;28;20257;-69
2023/11/13 05:26:40;;;;;;;11.73;10.27;;;7.60;99.90;;;;;;5014550;28;20228;-68
2023/11/13 05:29:06;;;;;;;12.90;10.67;;;7.60;99.90;;;;;;5014115;28;20251;-69
2023/11/13 05:31:32;;;;;;;12.70;10.60;;;7.60;99.90;;;;;;5014255;28;20631;-69
2023/11/13 05:33:57;;;;;;;13.17;10.87;;;7.60;99.90;;;;;;5014247;28;20200;-69
2023/11/13 05:36:23;;;;;;;12.57;10.33;;;7.60;99.90;;;;;;5014408;28;20186;-69
2023/11/13 05:38:49;;;;;;;13.47;12.00;;;7.60;99.90;;;;;;5014105;28;20235;-68
2023/11/13 05:41:14;;;;;;;14.97;12.70;;;7.60;99.90;;;;;;5014130;28;20203;-69
2023/11/13 05:43:40;;;;;;;13.10;11.17;;;7.60;99.90;;;;;;5014067;28;20180;-68
2023/11/13 05:46:07;;;;;;;12.30;11.00;;;7.60;99.90;;;;;;5014078;28;20294;-68
2023/11/13 05:48:33;;;;;;;13.53;12.03;;;7.60;99.90;;;;;;5013529;28;20180;-68
2023/11/13 05:50:59;;;;;;;13.87;12.03;;;7.60;99.90;;;;;;5014828;28;20180;-69
2023/11/13 05:53:25;;;;;;;20.03;11.90;;;7.70;99.90;;;;;;5014234;28;20184;-68
2023/11/13 05:55:51;;;;;;;16.20;11.37;;;7.70;99.90;;;;;;5014276;28;20275;-69
2023/11/13 05:58:17;;;;;;;13.77;12.27;;;7.70;99.90;;;;;;5014079;28;20172;-69
2023/11/13 06:00:43;;;;;;;14.63;11.63;;;7.70;99.90;;;;;;5014068;28;20185;-69
2023/11/13 06:03:09;;;;;;;15.13;11.37;;;7.70;99.90;;;;;;5013927;28;20291;-68
2023/11/13 06:05:34;;;;;;;13.83;11.60;;;7.70;99.90;;;;;;5013993;28;20291;-68
2023/11/13 06:08:00;;;;;;;11.37;9.80;;;7.70;99.90;;;;;;5013837;28;20546;-68
2023/11/13 06:10:26;;;;;;;12.50;10.07;;;7.80;99.90;;;;;;5013807;28;20600;-69
2023/11/13 06:12:52;;;;;;;12.37;10.17;;;7.80;99.90;;;;;;5013857;28;20700;-69
2023/11/13 06:15:18;;;;;;;10.93;9.83;;;7.80;99.90;;;;;;5013005;28;20196;-69
2023/11/13 06:17:45;;;;;;;20.20;10.17;;;7.80;99.90;;;;;;5013107;28;20199;-69
2023/11/13 06:20:14;;;;;;;11.30;9.67;;;7.80;99.90;;;;;;5013540;28;20172;-69
2023/11/13 06:22:41;;;;;;;10.57;9.37;;;7.80;99.90;;;;;;5013564;28;20457;-69
2023/11/13 06:25:07;;;;;;;12.97;9.83;;;7.90;99.90;;;;;;5012349;28;20200;-69
2023/11/13 06:27:34;;;;;;;13.13;9.87;;;7.90;99.90;;;;;;5013081;28;20164;-69
2023/11/13 06:29:59;;;;;;;11.43;9.00;;;8.00;99.90;;;;;;5013395;28;20196;-69
2023/11/13 06:32:26;;;;;;;9.40;8.40;;;8.00;99.90;;;;;;5012921;28;20277;-69
2023/11/13 06:34:51;;;;;;;11.63;8.40;;;8.00;99.90;;;;;;5012846;28;20286;-69
2023/11/13 06:37:17;;;;;;;10.47;8.67;;;8.10;99.90;;;;;;5012935;28;20299;-69
2023/11/13 06:39:44;;;;;;;13.80;8.90;;;8.10;99.90;;;;;;5012518;28;20536;-69
2023/11/13 06:42:10;;;;;;;12.03;9.10;;;8.20;99.90;;;;;;4993349;28;20177;-69
2023/11/13 06:44:36;;;;;;;11.17;9.00;;;8.10;99.90;;;;;;4993463;28;20251;-70
2023/11/13 06:47:02;;;;;;;8.83;7.90;;;8.20;99.90;;;;;;4992941;28;20208;-70
2023/11/13 06:49:28;;;;;;;12.00;8.13;;;8.20;99.90;;;;;;5011892;28;20176;-69
2023/11/13 06:51:53;;;;;;;9.53;8.27;;;8.20;99.90;;;;;;5011458;28;20267;-69
2023/11/13 06:54:20;;;;;;;8.97;8.07;;;8.20;99.90;;;;;;5011347;28;20203;-69
2023/11/13 06:56:46;;;;;;;9.67;8.40;;;8.30;99.90;;;;;;5011616;28;20736;-70
2023/11/13 06:59:12;;;;;;;10.67;8.47;;;8.30;99.90;;;;;;5011720;28;20195;-70
2023/11/13 07:01:40;;;;;;;9.97;7.97;;;8.30;99.90;;;;;;5011845;28;20196;-69
2023/11/13 07:04:09;;;;;;;8.80;7.90;;;8.30;99.90;;;;;;5012036;28;20200;-70
2023/11/13 07:06:39;;;;;;;14.23;8.80;;;8.30;99.90;;;;;;5012153;28;20707;-69
2023/11/13 07:09:10;;;;;;;10.40;8.77;;;8.40;99.90;;;;;;5012080;28;20164;-69
2023/11/13 07:11:42;;;;;;;11.97;8.13;;;8.40;99.90;;;;;;5012515;28;20596;-69
2023/11/13 07:14:12;;;;;;;10.10;8.03;;;8.40;99.90;;;;;;5012110;28;20196;-70
2023/11/13 07:16:40;;;;;;;8.33;7.33;;;8.40;99.90;;;;;;5011912;28;20551;-69
2023/11/13 07:19:06;;;;;;;12.93;7.30;;;8.50;99.90;;;;;;5021992;28;20202;-69
2023/11/13 07:21:35;;;;;;;8.10;7.33;;;8.40;99.90;;;;;;5031439;28;20348;-70
2023/11/13 07:24:03;;;;;;;8.43;7.40;;;8.50;99.90;;;;;;5031611;28;20219;-70
2023/11/13 07:26:29;;;;;;;16.97;8.00;;;8.50;99.90;;;;;;5031369;28;20203;-69
2023/11/13 07:28:55;;;;;;;10.07;6.63;;;8.60;99.90;;;;;;5031485;28;20241;-69
2023/11/13 07:31:22;;;;;;;14.37;8.20;;;8.70;99.90;;;;;;5018448;28;20358;-69
2023/11/13 07:33:49;;;;;;;10.60;7.57;;;8.80;99.90;;;;;;5011574;28;20176;-70
2023/11/13 07:36:14;;;;;;;12.03;9.57;;;8.80;99.90;;;;;;5011053;28;20183;-69
2023/11/13 07:38:43;;;;;;;12.70;8.63;;;8.90;99.90;;;;;;5011503;28;20259;-70
2023/11/13 07:41:11;;;;;;;22.43;11.43;;;8.90;99.90;;;;;;5011574;28;20195;-70
2023/11/13 07:43:41;;;;;;;13.60;10.43;;;8.90;99.90;;;;;;5011053;28;20188;-70
2023/11/13 07:46:07;;;;;;;15.83;9.53;;;8.90;99.90;;;;;;5011331;28;20211;-70
2023/11/13 07:48:37;;;;;;;11.07;8.50;;;9.00;99.90;;;;;;5011418;28;20195;-70
2023/11/13 07:51:05;;;;;;;17.07;9.73;;;9.00;99.90;;;;;;5011711;28;20176;-70
2023/11/13 07:53:31;;;;;;;15.33;9.70;;;9.00;99.90;;;;;;5011562;28;20181;-70
2023/11/13 07:55:56;;;;;;;14.03;8.57;;;9.00;99.90;;;;;;5011160;28;20250;-69
2023/11/13 07:58:23;;;;;;;9.67;6.87;;;9.00;99.90;;;;;;5011658;28;20251;-69
2023/11/13 08:00:52;;;;;;;14.70;6.40;;;9.10;99.90;;;;;;5011574;28;20176;-69
2023/11/13 08:03:22;;;;;;;12.47;5.60;;;9.20;99.90;;;;;;5011320;28;20242;-69
2023/11/13 08:05:47;;;;;;;10.97;6.13;;;9.30;99.90;;;;;;5011058;28;20588;-69
2023/11/13 08:08:15;;;;;;;11.87;5.87;;;9.40;99.90;;;;;;5011154;28;20175;-69
2023/11/13 08:10:41;;;;;;;14.03;6.03;;;9.40;99.90;;;;;;5011176;28;20176;-69
2023/11/13 08:13:07;;;;;;;12.13;5.57;;;9.50;99.90;;;;;;5011435;28;20597;-71
2023/11/13 08:15:34;;;;;;;13.03;5.60;;;9.50;99.90;;;;;;5011227;28;20195;-70
2023/11/13 08:18:00;;;;;;;13.20;5.93;;;9.60;99.90;;;;;;5011064;28;20255;-69
2023/11/13 08:20:26;;;;;;;11.70;5.93;;;9.60;99.90;;;;;;5011474;28;20187;-69
2023/11/13 08:22:56;;;;;;;15.90;5.60;;;9.60;99.90;;;;;;5011232;28;20180;-69
2023/11/13 08:25:23;;;;;;;10.60;6.00;;;9.60;99.90;;;;;;5010827;28;20204;-69
2023/11/13 08:27:51;;;;;;;11.70;5.90;;;9.60;99.90;;;;;;5010360;28;20243;-69
2023/11/13 08:30:17;;;;;;;12.07;5.83;;;9.60;99.90;;;;;;5010566;28;20184;-70
2023/11/13 08:32:43;;;;;;;14.33;5.70;;;9.60;99.90;;;;;;5011243;28;20203;-69
2023/11/13 08:35:13;;;;;;;12.93;6.37;;;9.60;99.90;;;;;;5009374;28;20188;-69
2023/11/13 08:37:42;;;;;;;7.83;5.60;;;9.70;99.90;;;;;;4991776;28;20207;-69
2023/11/13 08:40:10;;;;;;;10.67;6.20;;;9.70;99.90;;;;;;5010960;28;20180;-69
2023/11/13 08:42:40;;;;;;;15.03;6.60;;;9.70;99.90;;;;;;5010663;28;20187;-68
2023/11/13 08:45:12;;;;;;;10.00;6.17;;;9.60;99.90;;;;;;5010507;28;20201;-74
2023/11/13 08:47:39;;;;;;;11.90;5.87;;;9.60;99.90;;;;;;5011432;28;20176;-70
2023/11/13 08:50:08;;;;;;;12.57;5.90;;;9.70;99.90;;;;;;5014206;28;20192;-70
2023/11/13 08:52:34;;;;;;;11.57;6.00;;;9.70;99.90;;;;;;5014462;28;20262;-69
2023/11/13 08:55:00;;;;;;;12.57;5.63;;;9.80;99.90;;;;;;5014372;28;20678;-69
2023/11/13 08:57:26;;;;;;;7.33;6.17;;;9.80;99.90;;;;;;5014135;28;20192;-70
2023/11/13 08:59:52;;;;;;;13.17;5.90;;;9.80;99.90;;;;;;5013966;28;20184;-70
2023/11/13 09:02:23;;;;;;;10.10;5.63;;;9.80;99.90;;;;;;5012749;28;20258;-70
2023/11/13 09:04:49;;;;;;;13.97;5.27;;;9.90;99.90;;;;;;5014424;28;20195;-70
2023/11/13 09:07:17;;;;;;;8.00;5.20;;;9.90;99.90;;;;;;5014239;28;20207;-69
2023/11/13 09:09:42;;;;;;;10.60;6.13;;;9.90;99.90;;;;;;5014293;28;20226;-69
2023/11/13 09:12:12;;;;;;;12.97;7.60;;;9.90;99.90;;;;;;5014108;28;20176;-69
2023/11/13 09:14:38;;;;;;;11.63;7.63;;;9.90;99.90;;;;;;5013264;28;20395;-70
2023/11/13 09:17:12;;;;;;;11.97;7.33;;;9.90;99.90;;;;;;5014075;28;20767;-69
2023/11/13 09:19:41;;;;;;;8.93;6.20;;;9.90;99.90;;;;;;5014182;28;20882;-70
2023/11/13 09:22:09;;;;;;;11.83;5.87;;;10.00;99.90;;;;;;4996091;28;20176;-70
2023/11/13 09:24:38;;;;;;;16.23;6.07;;;9.90;99.90;;;;;;5013690;28;20239;-70
2023/11/13 09:27:11;;;;;;;9.33;6.20;;;10.00;99.90;;;;;;5013847;28;20208;-70
2023/11/13 09:29:43;;;;;;;9.80;5.90;;;10.00;99.90;;;;;;5013693;28;20322;-70
2023/11/13 09:32:09;;;;;;;10.63;6.43;;;10.00;99.90;;;;;;5012366;28;20176;-69
2023/11/13 09:34:36;;;;;;;9.47;6.23;;;10.00;99.90;;;;;;5013615;28;20195;-70
2023/11/13 09:37:05;;;;;;;8.97;6.37;;;10.00;99.90;;;;;;5011802;28;20215;-70
2023/11/13 09:39:42;;;;;;;7.57;6.80;;;10.00;99.90;;;;;;5013611;28;20715;-70
2023/11/13 09:42:16;;;;;;;7.33;6.70;;;10.00;99.90;;;;;;5013882;28;20310;-70
2023/11/13 09:44:43;;;;;;;7.47;5.93;;;10.10;99.90;;;;;;5013505;28;20196;-69
2023/11/13 09:47:13;;;;;;;5.97;5.43;;;10.10;99.90;;;;;;5012363;28;20208;-69
2023/11/13 09:49:45;;;;;;;13.17;11.13;;;10.10;99.90;;;;;;5013489;28;20177;-69
2023/11/13 09:52:14;;;;;;;8.40;5.60;;;10.10;99.90;;;;;;5013506;28;20173;-70
2023/11/13 09:54:43;;;;;;;6.83;5.23;;;10.10;99.90;;;;;;5013293;28;20192;-70
2023/11/13 09:57:12;;;;;;;5.87;5.27;;;10.10;99.90;;;;;;5013071;28;20736;-71
2023/11/13 09:59:40;;;;;;;9.20;5.60;;;10.20;99.90;;;;;;5012284;28;20259;-70
2023/11/13 10:02:09;;;;;;;9.10;6.67;;;10.20;99.90;;;;;;5013445;28;20539;-69
2023/11/13 10:04:35;;;;;;;9.37;6.30;;;10.20;99.90;;;;;;5013301;28;20611;-69
2023/11/13 10:07:02;;;;;;;9.07;6.40;;;10.20;99.90;;;;;;5013097;28;20214;-70
2023/11/13 10:09:30;;;;;;;11.47;6.60;;;10.20;99.90;;;;;;5013252;28;20200;-69
2023/11/13 10:11:58;;;;;;;6.70;6.10;;;10.30;99.90;;;;;;5013097;28;20565;-70
2023/11/13 10:14:24;;;;;;;11.53;6.10;;;10.30;99.90;;;;;;5013061;28;20244;-71
2023/11/13 10:17:00;;;;;;;6.00;5.50;;;10.20;99.90;;;;;;5013233;28;20549;-70
2023/11/13 10:19:26;;;;;;;9.30;6.17;;;10.20;99.90;;;;;;5013171;28;20299;-69
2023/11/13 10:21:52;;;;;;;8.53;6.63;;;10.20;99.90;;;;;;5013108;28;20172;-70
2023/11/13 10:24:23;;;;;;;8.80;6.33;;;10.20;99.90;;;;;;5013170;28;20196;-69
2023/11/13 10:26:54;;;;;;;8.63;6.53;;;10.30;99.90;;;;;;5012871;28;20542;-69
2023/11/13 10:29:30;;;;;;;9.67;7.07;;;10.30;99.90;;;;;;5012793;28;20173;-69
2023/11/13 10:31:58;;;;;;;12.60;6.73;;;10.30;99.90;;;;;;5012744;28;20171;-69
2023/11/13 10:34:41;;;;;;;9.40;6.70;;;10.30;99.90;;;;;;5012595;28;20573;-71
2023/11/13 10:37:12;;;;;;;9.27;6.40;;;10.30;99.90;;;;;;5011578;28;20215;-69
2023/11/13 10:39:42;;;;;;;6.53;5.90;;;10.40;99.90;;;;;;5011226;28;20692;-70
2023/11/13 10:42:18;;;;;;;10.87;7.07;;;10.40;99.90;;;;;;5011444;28;20177;-70
2023/11/13 10:44:45;;;;;;;7.93;7.03;;;10.50;99.90;;;;;;5012129;28;20250;-70
2023/11/13 10:47:30;;;;;;;7.77;6.57;;;10.50;99.90;;;;;;5012419;28;20542;-70
2023/11/13 10:50:00;;;;;;;8.37;6.47;;;10.60;99.90;;;;;;5011589;28;20234;-70
2023/11/13 10:52:28;;;;;;;8.37;6.23;;;10.60;99.90;;;;;;5012399;28;20188;-70
2023/11/13 10:54:56;;;;;;;7.33;6.63;;;10.60;99.90;;;;;;5012239;28;20588;-70
2023/11/13 10:57:26;;;;;;;8.57;6.23;;;10.60;99.90;;;;;;5009552;28;20192;-70
2023/11/13 10:59:53;;;;;;;8.00;6.00;;;10.70;99.90;;;;;;5000800;28;20218;-70
2023/11/13 11:02:45;;;;;;;9.00;5.80;;;10.70;99.90;;;;;;5012126;28;20176;-70
2023/11/13 11:05:34;;;;;;;7.03;6.07;;;10.70;99.90;;;;;;4993117;28;20192;-70
2023/11/13 11:08:01;;;;;;;6.67;5.67;;;10.60;99.90;;;;;;5014829;28;20179;-70
2023/11/13 11:10:26;;;;;;;6.57;5.67;;;10.70;99.90;;;;;;5023358;28;20234;-70
2023/11/13 11:13:00;;;;;;;7.33;6.17;;;10.70;99.90;;;;;;5011066;28;20180;-70
2023/11/13 11:15:41;;;;;;;8.70;7.03;;;10.70;99.90;;;;;;5011904;28;20258;-70
2023/11/13 11:18:27;;;;;;;6.57;5.87;;;10.70;99.90;;;;;;5011636;28;20259;-70
2023/11/13 11:21:07;;;;;;;7.33;5.57;;;10.80;99.90;;;;;;5011787;28;20187;-70
2023/11/13 11:23:51;;;;;;;6.20;5.60;;;10.90;99.90;;;;;;5011414;28;20179;-72
2023/11/13 11:26:19;;;;;;;10.27;6.23;;;10.90;99.90;;;;;;5011820;28;20286;-70
2023/11/13 11:28:49;;;;;;;7.30;6.60;;;10.90;99.90;;;;;;5011493;28;20168;-70
2023/11/13 11:31:30;;;;;;;6.80;6.10;;;11.00;99.90;;;;;;5011797;28;20176;-70
2023/11/13 11:33:56;;;;;;;6.70;5.97;;;11.10;99.90;;;;;;5011578;28;20196;-70
2023/11/13 11:36:26;;;;;;;8.30;5.80;;;11.20;99.90;;;;;;5011614;28;20258;-70
2023/11/13 11:39:24;;;;;;;7.20;5.70;;;11.30;99.90;;;;;;5011243;28;20188;-70
2023/11/13 11:41:51;;;;;;;6.37;5.77;;;11.30;99.90;;;;;;5011859;28;20270;-70
2023/11/13 11:44:22;;;;;;;7.17;5.83;;;11.40;99.90;;;;;;5011790;28;20195;-70
2023/11/13 11:46:50;;;;;;;6.73;6.00;;;11.40;99.90;;;;;;5011624;28;20291;-70
2023/11/13 11:49:28;;;;;;;6.57;5.60;;;11.40;99.90;;;;;;5019960;28;20621;-69
2023/11/13 11:52:11;;;;;;;7.87;6.03;;;11.40;99.90;;;;;;5014699;28;20176;-69
2023/11/13 11:54:38;;;;;;;6.13;5.60;;;11.50;99.90;;;;;;5011122;28;20188;-69
2023/11/13 11:57:11;;;;;;;6.63;5.93;;;11.50;99.90;;;;;;5011255;28;20311;-69
2023/11/13 11:59:39;;;;;;;9.10;6.00;;;11.50;99.90;;;;;;5010989;28;20182;-70
2023/11/13 12:02:05;;;;;;;5.50;5.00;;;11.50;99.90;;;;;;5010871;28;20653;-69
2023/11/13 12:04:32;;;;;;;7.30;5.90;;;11.50;99.90;;;;;;5010740;28;20206;-69
2023/11/13 12:07:02;;;;;;;6.03;5.50;;;11.50;99.90;;;;;;5010703;28;20207;-70
2023/11/13 12:09:28;;;;;;;9.67;5.40;;;11.50;99.90;;;;;;5010965;28;20549;-69
2023/11/13 12:11:54;;;;;;;8.87;6.23;;;11.50;99.90;;;;;;5011021;28;20168;-70
2023/11/13 12:14:21;;;;;;;11.13;6.77;;;11.50;99.90;;;;;;5011097;28;20188;-70
2023/11/13 12:16:50;;;;;;;10.07;6.07;;;11.40;99.90;;;;;;5010692;28;20433;-70
2023/11/13 12:19:16;;;;;;;8.47;6.20;;;11.40;99.90;;;;;;5010675;28;20184;-70
2023/11/13 12:21:42;;;;;;;8.57;6.37;;;11.40;99.90;;;;;;5010901;28;20526;-70
2023/11/13 12:24:12;;;;;;;7.00;6.30;;;11.40;99.90;;;;;;5013744;28;20199;-70
2023/11/13 12:26:44;;;;;;;8.83;6.43;;;11.40;99.90;;;;;;5014741;28;20570;-70
2023/11/13 12:29:19;;;;;;;9.87;6.83;;;11.40;99.90;;;;;;5014669;28;20264;-70
2023/11/13 12:31:46;;;;;;;10.47;6.53;;;11.50;99.90;;;;;;5015027;28;20184;-69
2023/11/13 12:34:15;;;;;;;9.90;7.23;;;11.50;99.90;;;;;;5014876;28;20649;-70
2023/11/13 12:36:46;;;;;;;8.13;6.73;;;11.50;99.90;;;;;;5014801;28;20215;-71
2023/11/13 12:39:22;;;;;;;6.83;6.23;;;11.60;99.90;;;;;;5014571;28;20210;-70
2023/11/13 12:41:51;;;;;;;7.43;6.73;;;11.70;99.90;;;;;;5014702;28;20270;-70
2023/11/13 12:44:18;;;;;;;7.60;6.13;;;11.70;99.90;;;;;;5014786;28;20279;-70
2023/11/13 12:46:48;;;;;;;7.83;6.73;;;11.70;99.90;;;;;;5014321;28;20737;-70